Time;durP1;ratioP1;P1;durP2;ratioP2;P2;SDS_P1;SDS_P2;PMS_P1;PMS_P2;Temp;Humidity;BMP_temperature;BMP_pressure;BME280_temperature;BME280_humidity;BME280_pressure;Samples;Min_cycle;Max_cycle;Signal;HPM_P1;HPM_P2
2022/05/23 00:01:53;;;;;;;10.18;4.50;;;;;;;17.00;69.15;100550.84;4990595;28;20437;-83
2022/05/23 00:04:19;;;;;;;8.65;4.15;;;;;;;16.94;69.37;100541.19;4991346;28;20026;-82
2022/05/23 00:06:46;;;;;;;9.40;4.10;;;;;;;16.87;69.68;100550.88;5000062;28;20513;-82
2022/05/23 00:09:14;;;;;;;8.07;3.78;;;;;;;16.84;69.69;100539.00;4988402;28;20030;-82
2022/05/23 00:11:39;;;;;;;9.27;3.55;;;;;;;16.75;70.04;100540.19;4995263;28;20026;-82
2022/05/23 00:14:05;;;;;;;8.93;3.35;;;;;;;16.74;70.49;100546.41;4989180;28;20030;-84
2022/05/23 00:16:35;;;;;;;5.68;3.47;;;;;;;16.77;70.77;100534.75;5005449;28;20115;-85
2022/05/23 00:19:01;;;;;;;6.32;4.03;;;;;;;16.81;71.51;100539.34;5004458;28;20034;-82
2022/05/23 00:21:27;;;;;;;7.28;3.88;;;;;;;16.86;71.15;100533.56;4975139;28;20049;-82
2022/05/23 00:23:52;;;;;;;7.88;3.25;;;;;;;16.91;71.04;100526.69;5004624;28;20371;-82
2022/05/23 00:26:20;;;;;;;7.45;3.35;;;;;;;16.94;71.33;100515.00;4989920;28;20038;-85
2022/05/23 00:28:46;;;;;;;5.68;3.10;;;;;;;16.97;71.15;100519.84;4993937;28;20522;-83
2022/05/23 00:31:12;;;;;;;5.47;3.13;;;;;;;17.01;70.88;100518.41;4992373;28;20041;-82
2022/05/23 00:36:30;;;;;;;7.60;3.10;;;;;;;17.04;70.75;100511.94;4996574;28;20116;-82
2022/05/23 00:38:57;;;;;;;5.57;2.97;;;;;;;17.05;70.75;100508.34;5012703;28;20068;-82
2022/05/23 00:44:31;;;;;;;9.65;3.25;;;;;;;17.07;69.72;100501.88;4991323;28;20034;-85
2022/05/23 00:47:14;;;;;;;7.47;3.65;;;;;;;17.09;69.63;100518.19;4992014;28;20093;-84
2022/05/23 00:49:41;;;;;;;5.70;3.03;;;;;;;17.17;68.66;100505.88;4981840;28;20746;-82
2022/05/23 00:52:11;;;;;;;9.40;4.32;;;;;;;17.01;69.77;100501.88;4971272;28;20025;-83
2022/05/23 00:54:43;;;;;;;10.82;3.65;;;;;;;17.02;69.64;100504.28;4977047;28;20567;-82
2022/05/23 00:57:14;;;;;;;11.10;3.65;;;;;;;16.97;69.90;100498.88;4989690;28;20034;-82
2022/05/23 00:59:40;;;;;;;10.95;3.85;;;;;;;16.97;69.75;100505.91;5005476;28;20058;-83
2022/05/23 01:02:09;;;;;;;5.95;3.33;;;;;;;16.85;70.24;100497.91;4976261;28;20021;-82
2022/05/23 01:04:39;;;;;;;14.98;3.38;;;;;;;16.86;70.38;100499.53;4989085;28;20038;-82
2022/05/23 01:07:06;;;;;;;6.38;2.92;;;;;;;16.88;70.32;100490.44;4986323;28;20034;-82
2022/05/23 01:09:32;;;;;;;8.00;3.20;;;;;;;16.85;70.23;100490.84;4991758;28;20030;-84
2022/05/23 01:11:59;;;;;;;6.57;3.00;;;;;;;16.86;70.15;100483.81;5004681;28;20109;-84
2022/05/23 01:14:26;;;;;;;9.18;3.20;;;;;;;16.90;69.45;100490.25;4990553;28;20034;-81
2022/05/23 01:16:52;;;;;;;9.95;3.30;;;;;;;16.89;68.65;100478.16;4976077;28;20068;-83
2022/05/23 01:19:17;;;;;;;5.97;2.63;;;;;;;16.95;67.95;100463.44;4988936;28;20030;-82
2022/05/23 01:21:43;;;;;;;9.75;2.58;;;;;;;16.84;68.11;100462.25;4991626;28;20052;-82
2022/05/23 01:24:22;;;;;;;6.93;2.70;;;;;;;16.87;67.60;100452.16;4979114;28;20496;-83
2022/05/23 01:26:57;;;;;;;11.05;3.15;;;;;;;16.96;67.13;100458.00;4988121;28;20037;-86
2022/05/23 01:29:36;;;;;;;4.07;2.50;;;;;;;16.87;67.18;100446.91;4988561;28;20566;-82
2022/05/23 01:32:10;;;;;;;4.20;2.38;;;;;;;16.89;66.80;100447.50;5005121;28;20390;-82
2022/05/23 01:34:37;;;;;;;3.92;2.10;;;;;;;16.99;66.33;100441.03;5002528;28;20406;-82
2022/05/23 01:37:09;;;;;;;9.00;2.53;;;;;;;16.82;66.59;100444.13;4988553;28;20528;-81
2022/05/23 01:39:48;;;;;;;6.00;2.47;;;;;;;16.92;65.94;100446.31;4993236;28;20060;-82
2022/05/23 01:42:14;;;;;;;8.23;3.00;;;;;;;16.98;66.15;100453.34;4989935;28;20390;-82
2022/05/23 01:44:40;;;;;;;5.55;3.10;;;;;;;17.04;65.82;100456.94;4976822;28;20160;-82
2022/05/23 01:47:15;;;;;;;5.97;2.57;;;;;;;16.90;66.14;100464.84;4973645;28;20064;-82
2022/05/23 01:49:48;;;;;;;8.82;2.92;;;;;;;16.92;66.02;100460.22;4990702;28;20371;-82
2022/05/23 01:52:33;;;;;;;9.82;3.28;;;;;;;16.97;66.07;100457.00;4993946;28;20261;-83
2022/05/23 01:55:00;;;;;;;10.05;2.97;;;;;;;16.96;66.06;100451.94;4990065;28;20061;-82
2022/05/23 01:57:26;;;;;;;3.35;2.40;;;;;;;16.97;65.86;100459.59;4991639;28;20033;-82
2022/05/23 02:02:47;;;;;;;6.43;2.60;;;;;;;16.86;66.74;100441.91;5003933;28;20490;-82
2022/05/23 02:05:15;;;;;;;7.20;2.60;;;;;;;16.86;66.49;100442.72;4974260;28;20030;-82
2022/05/23 02:07:42;;;;;;;11.15;3.22;;;;;;;16.93;66.46;100435.66;5004521;28;20033;-83
2022/05/23 02:10:09;;;;;;;7.00;3.13;;;;;;;17.05;65.58;100445.47;4986101;28;20030;-82
2022/05/23 02:12:40;;;;;;;7.15;2.45;;;;;;;16.96;65.94;100446.72;5004030;28;20065;-82
2022/05/23 02:15:10;;;;;;;10.98;3.05;;;;;;;16.90;65.87;100443.09;4989085;28;20038;-84
2022/05/23 02:18:03;;;;;;;4.97;3.08;;;;;;;16.86;66.18;100440.09;4969835;28;20049;-85
2022/05/23 02:20:29;;;;;;;6.40;2.47;;;;;;;16.95;65.79;100437.25;4985234;28;20037;-83
2022/05/23 02:22:55;;;;;;;5.25;2.65;;;;;;;16.88;65.95;100434.66;4997596;28;20034;-82
2022/05/23 02:25:23;;;;;;;8.13;2.30;;;;;;;16.79;66.11;100430.63;4989216;28;20254;-82
2022/05/23 02:27:49;;;;;;;4.88;2.03;;;;;;;16.81;64.95;100429.41;4985269;28;20084;-82
2022/05/23 02:30:15;;;;;;;5.00;3.30;;;;;;;16.84;65.17;100425.59;4991951;28;20029;-82
2022/05/23 02:32:41;;;;;;;6.10;2.63;;;;;;;16.71;65.78;100423.78;4994088;28;20033;-82
2022/05/23 02:35:09;;;;;;;6.78;2.40;;;;;;;16.71;65.37;100414.13;4992532;28;20200;-81
2022/05/23 02:37:35;;;;;;;5.80;2.45;;;;;;;16.79;64.71;100413.09;4976682;28;20033;-85
2022/05/23 02:40:02;;;;;;;6.95;2.42;;;;;;;16.80;64.23;100409.47;4991941;28;20051;-82
2022/05/23 02:42:30;;;;;;;6.13;2.30;;;;;;;16.75;64.41;100409.28;4974571;28;20052;-82
2022/05/23 02:44:56;;;;;;;12.63;2.38;;;;;;;16.76;63.73;100404.84;5008721;28;20033;-83
2022/05/23 02:47:24;;;;;;;4.95;2.10;;;;;;;16.75;64.06;100398.81;4975950;28;20042;-82
2022/05/23 02:49:52;;;;;;;4.18;2.15;;;;;;;16.80;63.25;100390.31;4992240;28;20030;-81
2022/05/23 02:52:37;;;;;;;4.50;1.83;;;;;;;16.82;63.39;100385.69;4988460;28;20117;-82
2022/05/23 02:55:17;;;;;;;5.15;2.15;;;;;;;16.76;63.55;100382.06;4991238;28;20045;-82
2022/05/23 02:57:42;;;;;;;7.72;2.67;;;;;;;16.71;63.46;100380.09;5006768;28;20069;-82
2022/05/23 03:00:16;;;;;;;5.05;2.05;;;;;;;16.73;62.96;100366.81;4993128;28;20442;-82
2022/05/23 03:03:03;;;;;;;6.72;2.10;;;;;;;16.70;63.42;100367.19;4992329;28;20097;-82
2022/05/23 03:05:52;;;;;;;7.22;2.40;;;;;;;16.57;64.14;100357.56;4995622;28;20034;-82
2022/05/23 03:08:24;;;;;;;5.70;2.53;;;;;;;16.61;63.48;100348.28;4976220;28;20038;-82
2022/05/23 03:10:51;;;;;;;4.70;2.38;;;;;;;16.58;63.72;100351.34;5004277;28;20026;-83
2022/05/23 03:13:18;;;;;;;3.08;1.90;;;;;;;16.47;64.19;100344.94;4973820;28;20316;-82
2022/05/23 03:15:44;;;;;;;3.53;1.83;;;;;;;16.42;65.00;100339.50;4989051;28;20080;-83
2022/05/23 03:18:10;;;;;;;5.57;2.33;;;;;;;16.40;64.66;100333.66;4992279;28;20726;-82
2022/05/23 03:20:39;;;;;;;4.28;2.75;;;;;;;16.37;65.31;100326.25;4975607;28;20105;-82
2022/05/23 03:28:36;;;;;;;3.20;1.73;;;;;;;16.28;66.37;100309.97;5008166;28;20455;-82
2022/05/23 03:31:03;;;;;;;6.85;2.85;;;;;;;16.31;64.95;100311.34;4989395;28;21071;-82
2022/05/23 03:33:30;;;;;;;4.18;2.35;;;;;;;16.23;65.87;100317.59;4989113;28;20027;-82
2022/05/23 03:35:56;;;;;;;7.13;2.67;;;;;;;16.27;65.43;100304.94;4974603;28;20030;-82
2022/05/23 03:38:23;;;;;;;8.50;2.50;;;;;;;16.25;64.89;100306.94;4978727;28;20104;-83
2022/05/23 03:40:49;;;;;;;6.28;2.38;;;;;;;16.35;64.30;100305.53;4977952;28;20033;-82
2022/05/23 03:43:15;;;;;;;7.38;2.40;;;;;;;16.22;64.69;100299.50;4992499;28;20053;-82
2022/05/23 03:45:41;;;;;;;9.73;2.55;;;;;;;16.16;64.87;100303.72;5005043;28;20503;-85
2022/05/23 03:48:10;;;;;;;6.25;2.35;;;;;;;16.07;64.96;100297.16;5003844;28;20518;-83
2022/05/23 03:50:36;;;;;;;7.03;2.55;;;;;;;16.05;65.09;100289.50;4992231;28;20026;-82
2022/05/23 03:53:05;;;;;;;6.75;2.60;;;;;;;15.94;65.33;100272.63;5005992;28;20169;-83
2022/05/23 03:55:33;;;;;;;6.35;2.80;;;;;;;16.02;65.07;100263.75;4991792;28;20116;-82
2022/05/23 03:58:28;;;;;;;5.00;2.38;;;;;;;15.96;65.45;100270.59;4991066;28;20502;-83
2022/05/23 04:01:16;;;;;;;6.80;2.10;;;;;;;15.88;65.86;100264.75;4992278;28;20446;-82
2022/05/23 04:03:46;;;;;;;3.97;2.33;;;;;;;15.83;66.34;100265.38;4976765;28;20518;-83
2022/05/23 04:06:11;;;;;;;7.93;2.60;;;;;;;15.88;66.05;100255.13;4989748;28;20026;-82
2022/05/23 04:08:48;;;;;;;5.72;1.98;;;;;;;15.90;65.76;100260.16;4993008;28;20443;-82
2022/05/23 04:11:14;;;;;;;6.75;2.63;;;;;;;15.91;65.88;100251.28;4991306;28;20095;-82
2022/05/23 04:13:40;;;;;;;8.02;2.55;;;;;;;15.90;66.09;100252.31;4993773;28;20033;-82
2022/05/23 04:16:06;;;;;;;5.63;2.63;;;;;;;15.95;65.68;100253.31;4988469;28;20057;-83
2022/05/23 04:18:33;;;;;;;7.07;2.80;;;;;;;15.93;65.81;100247.47;4972862;28;20030;-82
2022/05/23 04:21:01;;;;;;;6.55;2.15;;;;;;;15.93;66.03;100249.28;4987084;28;20219;-83
2022/05/23 04:23:28;;;;;;;7.20;2.95;;;;;;;16.00;65.45;100250.06;4974654;28;20026;-84
2022/05/23 04:25:54;;;;;;;8.82;2.50;;;;;;;16.02;65.88;100239.41;5003459;28;20033;-82
2022/05/23 04:28:24;;;;;;;5.10;2.67;;;;;;;16.00;65.65;100244.06;4973601;28;20041;-82
2022/05/23 04:30:49;;;;;;;4.10;2.15;;;;;;;16.05;65.71;100250.28;4991878;28;20065;-82
2022/05/23 04:36:07;;;;;;;5.15;2.53;;;;;;;16.09;65.39;100235.78;4986935;28;20034;-82
2022/05/23 04:38:38;;;;;;;5.82;2.58;;;;;;;16.10;65.98;100242.59;4988705;28;20034;-82
2022/05/23 04:41:07;;;;;;;7.82;2.72;;;;;;;16.10;66.01;100228.72;4987969;28;20029;-83
2022/05/23 04:43:58;;;;;;;6.10;2.83;;;;;;;16.28;65.26;100231.47;4991586;28;20375;-83
2022/05/23 04:46:26;;;;;;;6.88;2.40;;;;;;;16.25;65.52;100212.78;4992882;28;20064;-82
2022/05/23 04:51:50;;;;;;;7.07;2.40;;;;;;;16.25;65.38;100204.94;4991056;28;20026;-82
2022/05/23 04:54:20;;;;;;;5.80;2.50;;;;;;;16.38;65.49;100206.69;4992998;28;20062;-83
2022/05/23 04:56:49;;;;;;;7.53;2.47;;;;;;;16.37;64.82;100208.50;4990506;28;20482;-83
2022/05/23 04:59:17;;;;;;;5.18;2.42;;;;;;;16.45;65.14;100205.66;5006232;28;20061;-83
2022/05/23 05:01:43;;;;;;;5.82;2.85;;;;;;;16.43;65.53;100206.88;4989976;28;20484;-82
2022/05/23 05:04:08;;;;;;;4.90;2.42;;;;;;;16.38;65.75;100199.63;5006745;28;20038;-83
2022/05/23 05:06:38;;;;;;;5.68;2.47;;;;;;;16.38;66.44;100204.06;4976742;28;20049;-82
2022/05/23 05:09:03;;;;;;;6.85;2.42;;;;;;;16.49;65.76;100195.56;4988900;28;20025;-82
2022/05/23 05:11:29;;;;;;;6.28;2.53;;;;;;;16.56;64.96;100193.72;4989718;28;20044;-82
2022/05/23 05:14:11;;;;;;;7.22;2.33;;;;;;;16.45;65.98;100194.38;5006258;28;20576;-82
2022/05/23 05:16:40;;;;;;;7.88;2.65;;;;;;;16.53;65.77;100187.06;4991915;28;20033;-82
2022/05/23 05:19:07;;;;;;;4.95;2.10;;;;;;;16.57;65.97;100186.66;4991816;28;20034;-83
2022/05/23 05:21:59;;;;;;;6.78;2.85;;;;;;;16.66;65.26;100172.31;4991375;28;20131;-85
2022/05/23 05:24:43;;;;;;;6.68;3.00;;;;;;;16.67;65.33;100171.28;4990385;28;20095;-81
2022/05/23 05:27:29;;;;;;;4.72;2.40;;;;;;;16.70;65.14;100170.88;4993979;28;20049;-84
2022/05/23 05:29:55;;;;;;;3.63;3.00;;;;;;;16.68;65.39;100158.00;5005247;28;20026;-82
2022/05/23 05:32:27;;;;;;;5.32;2.20;;;;;;;16.63;65.45;100160.47;4988309;28;20041;-82
2022/05/23 05:35:13;;;;;;;6.57;2.60;;;;;;;16.68;65.40;100154.59;4994395;28;20092;-82
2022/05/23 05:37:48;;;;;;;8.00;2.90;;;;;;;16.60;66.10;100139.94;4976158;28;20414;-82
2022/05/23 05:40:19;;;;;;;4.78;2.80;;;;;;;16.72;65.72;100140.06;4972398;28;20052;-83
2022/05/23 05:42:50;;;;;;;9.63;2.83;;;;;;;16.65;66.24;100147.97;4988551;28;20041;-82
2022/05/23 05:45:26;;;;;;;5.38;2.58;;;;;;;16.64;66.21;100145.56;4992553;28;20021;-83
2022/05/23 05:47:53;;;;;;;11.35;3.08;;;;;;;16.74;66.04;100140.66;4987966;28;20025;-82
2022/05/23 05:50:26;;;;;;;8.85;2.75;;;;;;;16.67;66.77;100139.88;4988045;28;20029;-83
2022/05/23 05:53:10;;;;;;;6.32;2.72;;;;;;;16.82;65.26;100147.44;4987781;28;20069;-84
2022/05/23 05:55:39;;;;;;;8.55;2.78;;;;;;;16.80;65.85;100139.81;4992061;28;20531;-82
2022/05/23 05:58:05;;;;;;;6.88;2.70;;;;;;;16.81;65.89;100138.78;4989602;28;20701;-82
2022/05/23 06:00:33;;;;;;;8.25;2.75;;;;;;;16.79;66.19;100135.59;4995233;28;20041;-82
2022/05/23 06:03:00;;;;;;;8.05;2.95;;;;;;;17.00;65.34;100138.88;4997788;28;20509;-84
2022/05/23 06:11:23;;;;;;;6.00;2.70;;;;;;;17.07;65.22;100131.78;4982718;28;20115;-83
2022/05/23 06:13:49;;;;;;;7.32;3.10;;;;;;;17.12;64.35;100137.16;4989483;28;20030;-87
2022/05/23 06:16:35;;;;;;;7.88;2.67;;;;;;;17.18;64.53;100138.09;4997515;28;20058;-83
2022/05/23 06:19:03;;;;;;;7.55;2.58;;;;;;;17.26;63.61;100135.22;5007238;28;20032;-84
2022/05/23 06:21:32;;;;;;;6.72;2.60;;;;;;;17.32;63.98;100129.91;4993757;28;20018;-85
2022/05/23 06:23:58;;;;;;;6.22;2.50;;;;;;;17.46;63.75;100127.16;4979043;28;20088;-83
2022/05/23 06:26:41;;;;;;;4.68;2.63;;;;;;;17.61;62.74;100118.94;4979127;28;20037;-82
2022/05/23 06:29:41;;;;;;;6.25;1.90;;;;;;;17.64;62.51;100116.69;4994787;28;20037;-82
2022/05/23 06:32:31;;;;;;;;;;;;;;;17.65;62.40;100102.56;4994108;28;20034;-82
2022/05/23 06:34:56;;;;;;;4.72;2.63;;;;;;;17.74;62.32;100105.69;4998453;28;20408;-83
2022/05/23 06:37:23;;;;;;;5.75;1.70;;;;;;;17.76;60.75;100094.97;4975971;28;20021;-81
2022/05/23 06:39:55;;;;;;;6.57;2.40;;;;;;;17.79;61.61;100095.34;4997288;28;20025;-83
2022/05/23 06:42:50;;;;;;;4.65;2.00;;;;;;;17.90;61.10;100093.84;4911235;28;20148;-83
2022/05/23 06:45:53;;;;;;;10.43;2.95;;;;;;;17.97;60.85;100091.94;5008005;28;20034;-85
2022/05/23 06:48:57;;;;;;;8.88;2.60;;;;;;;18.01;61.20;100087.03;5009312;28;20045;-83
2022/05/23 06:51:36;;;;;;;4.65;2.47;;;;;;;18.09;60.89;100086.72;4977830;28;20061;-84
2022/05/23 06:54:02;;;;;;;5.97;1.75;;;;;;;18.16;60.09;100082.19;5008951;28;20026;-82
2022/05/23 06:56:38;;;;;;;5.18;2.20;;;;;;;18.20;60.00;100082.56;4996867;28;20022;-82
2022/05/23 06:59:04;;;;;;;5.22;1.92;;;;;;;18.13;59.93;100084.47;4989485;28;20076;-82
2022/05/23 07:01:37;;;;;;;5.35;2.55;;;;;;;18.21;59.49;100084.94;4987318;28;20338;-81
2022/05/23 07:12:19;;;;;;;6.55;2.03;;;;;;;18.15;58.82;100085.03;4991445;28;20026;-90
2022/05/23 07:12:50;;;;;;;7.53;2.65;;;;;;;18.26;60.13;100071.16;4988612;28;20045;-83
2022/05/23 07:15:19;;;;;;;5.13;2.17;;;;;;;18.23;59.92;100061.09;4991994;28;20038;-82
2022/05/23 07:17:45;;;;;;;5.18;2.28;;;;;;;18.34;60.23;100065.56;4998095;28;20041;-81
2022/05/23 07:20:22;;;;;;;7.65;2.40;;;;;;;18.55;59.01;100058.97;4993452;28;20040;-83
2022/05/23 07:23:06;;;;;;;7.82;2.78;;;;;;;18.75;58.93;100058.69;4992652;28;20026;-82
2022/05/23 07:25:35;;;;;;;5.03;2.03;;;;;;;19.00;58.33;100047.16;4994054;28;20091;-81
2022/05/23 07:28:00;;;;;;;5.70;1.98;;;;;;;19.23;57.31;100043.69;4995478;28;20065;-85
2022/05/23 07:30:28;;;;;;;6.32;2.20;;;;;;;19.29;57.11;100036.72;4995231;28;20041;-82
2022/05/23 07:32:58;;;;;;;4.95;2.60;;;;;;;19.45;56.32;100034.16;4993951;28;20053;-82
2022/05/23 07:35:54;;;;;;;5.33;2.60;;;;;;;19.51;56.76;100040.31;4996594;28;20116;-85
2022/05/23 07:38:19;;;;;;;6.95;1.98;;;;;;;19.76;56.79;100034.81;4993296;28;20475;-82
2022/05/23 07:40:49;;;;;;;7.63;2.22;;;;;;;20.16;55.48;100041.00;4979987;28;20383;-84
2022/05/23 07:43:18;;;;;;;4.63;2.13;;;;;;;20.24;54.97;100037.97;4989570;28;20406;-82
2022/05/23 07:45:45;;;;;;;10.18;2.28;;;;;;;20.22;54.84;100034.78;4993523;28;20061;-82
2022/05/23 07:48:14;;;;;;;6.90;2.50;;;;;;;20.33;54.93;100033.13;4997979;28;20116;-84
2022/05/23 07:50:43;;;;;;;5.18;2.03;;;;;;;20.82;53.58;100028.09;4990977;28;20036;-86
2022/05/23 08:01:38;;;;;;;5.50;2.45;;;;;;;20.17;54.70;100018.91;4995468;28;20052;-86
2022/05/23 08:04:04;;;;;;;3.47;2.20;;;;;;;20.13;55.50;100015.16;4995359;28;20056;-83
2022/05/23 08:06:38;;;;;;;5.88;2.38;;;;;;;20.28;55.22;100011.97;4998452;28;20053;-82
2022/05/23 08:09:04;;;;;;;13.63;2.30;;;;;;;20.31;56.05;100001.78;5006339;28;20034;-85
2022/05/23 08:11:30;;;;;;;9.02;3.10;;;;;;;20.31;55.45;99999.16;4994560;28;20021;-85
2022/05/23 08:14:24;;;;;;;5.85;2.60;;;;;;;20.56;54.80;99988.19;5005138;28;20069;-85
2022/05/23 08:16:54;;;;;;;;;;;;;;;20.80;54.93;99980.13;4991799;28;20038;-82
2022/05/23 08:19:38;;;;;;;6.15;2.45;;;;;;;21.02;53.11;99977.53;4996025;28;19921;-86
2022/05/23 08:22:14;;;;;;;7.20;2.70;;;;;;;21.04;54.09;99985.16;5009560;28;20125;-82
2022/05/23 08:24:48;;;;;;;7.63;1.92;;;;;;;21.11;54.38;99991.84;4992782;28;20472;-83
2022/05/23 08:27:14;;;;;;;10.95;2.20;;;;;;;21.18;54.97;99992.44;4980027;28;20026;-82
2022/05/23 08:29:46;;;;;;;7.10;2.40;;;;;;;21.58;54.24;99996.59;4996172;28;20061;-83
2022/05/23 08:32:14;;;;;;;7.97;2.45;;;;;;;21.34;53.31;99990.81;4994839;28;20025;-84
2022/05/23 08:34:48;;;;;;;9.00;2.85;;;;;;;21.33;53.13;99986.56;4991599;28;20030;-81
2022/05/23 08:37:15;;;;;;;9.25;2.28;;;;;;;21.28;54.01;99981.22;4995363;28;20026;-83
2022/05/23 08:39:41;;;;;;;5.25;2.40;;;;;;;21.18;54.16;99960.81;4984301;28;20030;-83
2022/05/23 08:42:28;;;;;;;4.72;1.92;;;;;;;21.15;54.70;99973.69;4990695;28;20037;-82
2022/05/23 08:45:21;;;;;;;4.70;2.05;;;;;;;21.91;53.19;99980.84;4985081;28;20076;-84
2022/05/23 08:48:10;;;;;;;15.10;3.67;;;;;;;21.95;52.22;99979.28;4988307;28;20088;-87
2022/05/23 08:50:46;;;;;;;6.53;2.08;;;;;;;22.52;50.00;99972.59;4958937;28;20037;-82
2022/05/23 08:53:36;;;;;;;8.40;3.03;;;;;;;22.49;50.67;99973.09;4988872;28;20053;-83
2022/05/23 08:56:26;;;;;;;6.07;2.38;;;;;;;22.32;51.24;99989.09;5008032;28;20103;-84
2022/05/23 08:59:09;;;;;;;6.35;1.70;;;;;;;22.54;49.74;99971.28;4996854;28;20025;-83
2022/05/23 09:01:57;;;;;;;5.43;2.00;;;;;;;22.61;51.00;99976.34;4995842;28;20510;-83
2022/05/23 09:04:23;;;;;;;5.88;2.10;;;;;;;;;;4975623;28;20025;-83
2022/05/23 09:06:50;;;;;;;4.45;2.00;;;;;;;22.08;52.08;99981.50;5009184;28;20037;-82
2022/05/23 09:09:22;;;;;;;3.95;2.00;;;;;;;21.80;51.69;99981.81;4975309;28;20033;-86
2022/05/23 09:12:02;;;;;;;9.23;2.33;;;;;;;21.70;52.12;99985.94;4975073;28;20033;-86
2022/05/23 09:14:28;;;;;;;9.45;2.25;;;;;;;21.68;52.77;99987.22;4990282;28;20053;-83
2022/05/23 09:16:56;;;;;;;6.05;1.90;;;;;;;21.52;52.76;99967.81;5015606;28;20040;-83
2022/05/23 09:19:42;;;;;;;3.60;1.52;;;;;;;21.68;53.67;99964.28;4989873;28;20068;-82
2022/05/23 09:22:18;;;;;;;7.90;2.95;;;;;;;21.75;53.61;99953.50;4994183;28;20379;-83
2022/05/23 09:24:43;;;;;;;6.85;2.15;;;;;;;21.85;53.19;99943.06;4998679;28;20505;-84
2022/05/23 09:27:37;;;;;;;5.15;2.00;;;;;;;21.77;53.80;99935.59;4991773;28;20030;-86
2022/05/23 09:30:08;;;;;;;8.43;2.60;;;;;;;21.85;53.61;99914.03;4985269;28;20495;-83
2022/05/23 09:33:07;;;;;;;9.77;2.17;;;;;;;21.67;54.18;99914.41;4980828;28;20030;-85
2022/05/23 09:35:42;;;;;;;5.95;2.20;;;;;;;21.83;54.72;99908.22;5005068;28;20040;-83
2022/05/23 09:38:25;;;;;;;5.80;2.33;;;;;;;21.93;54.69;99907.50;4978669;28;20112;-83
2022/05/23 09:47:50;;;;;;;4.25;2.08;;;;;;;21.46;54.57;99868.59;5008133;28;20045;-87
2022/05/23 09:50:27;;;;;;;7.35;1.80;;;;;;;21.62;55.21;99862.41;4993458;28;20030;-83
2022/05/23 09:52:57;;;;;;;7.90;2.65;;;;;;;21.60;54.09;99856.56;5013659;28;20030;-85
2022/05/23 09:55:34;;;;;;;5.95;2.00;;;;;;;21.61;54.76;99854.75;4976851;28;20032;-83
2022/05/23 09:58:06;;;;;;;7.78;2.70;;;;;;;21.55;55.77;99857.34;4993382;28;20083;-83
2022/05/23 10:00:36;;;;;;;4.72;2.08;;;;;;;21.75;55.05;99851.41;5009971;28;20030;-83
2022/05/23 10:03:19;;;;;;;5.95;2.30;;;;;;;21.73;54.07;99845.59;5010327;28;20148;-86
2022/05/23 10:05:50;;;;;;;3.83;1.77;;;;;;;21.82;54.30;99850.44;4975931;28;20495;-84
2022/05/23 10:08:34;;;;;;;8.13;2.05;;;;;;;21.73;54.41;99850.09;4998547;28;20026;-82
2022/05/23 10:11:29;;;;;;;11.48;2.40;;;;;;;21.59;54.46;99849.72;5007619;28;20414;-84
2022/05/23 10:13:57;;;;;;;4.13;2.22;;;;;;;21.49;54.75;99849.63;5006311;28;20401;-84
2022/05/23 10:16:23;;;;;;;9.20;2.50;;;;;;;21.59;54.90;99844.44;4989783;28;20445;-83
2022/05/23 10:18:51;;;;;;;5.82;2.40;;;;;;;21.68;55.45;99850.84;4996921;28;20048;-82
2022/05/23 10:21:39;;;;;;;5.35;2.65;;;;;;;21.78;55.55;99850.13;4977664;28;20030;-84
2022/05/23 10:24:14;;;;;;;6.70;2.85;;;;;;;22.12;55.41;99849.81;4993186;28;20559;-88
2022/05/23 10:26:57;;;;;;;5.18;2.10;;;;;;;22.47;56.06;99837.88;5011980;28;20082;-82
2022/05/23 10:29:32;;;;;;;5.63;2.08;;;;;;;22.59;54.08;99845.59;4976014;28;20076;-84
2022/05/23 10:32:10;;;;;;;6.43;2.22;;;;;;;22.91;54.04;99833.00;4993237;28;20026;-83
2022/05/23 10:34:52;;;;;;;5.45;2.20;;;;;;;23.15;52.86;99835.19;5007939;28;20042;-84
2022/05/23 10:37:21;;;;;;;6.97;2.22;;;;;;;22.82;52.73;99825.84;4992802;28;20084;-84
2022/05/23 10:42:40;;;;;;;5.70;2.53;;;;;;;23.07;53.71;99814.53;4998065;28;20038;-85
2022/05/23 10:45:32;;;;;;;8.45;2.67;;;;;;;23.33;52.82;99795.00;4995317;28;20034;-83
2022/05/23 10:48:21;;;;;;;7.85;2.50;;;;;;;23.21;52.47;99796.31;4982826;28;20048;-83
2022/05/23 10:50:54;;;;;;;4.78;2.47;;;;;;;23.54;52.13;99779.09;4999894;28;20049;-85
2022/05/23 10:53:42;;;;;;;5.95;2.45;;;;;;;23.78;52.08;99776.69;4998878;28;20034;-84
2022/05/23 10:56:44;;;;;;;4.35;2.50;;;;;;;23.70;50.93;99767.44;4978086;28;20073;-83
2022/05/23 10:59:34;;;;;;;10.63;2.63;;;;;;;23.88;51.08;99765.31;4993610;28;20043;-86
2022/05/23 11:02:05;;;;;;;7.90;2.45;;;;;;;23.89;51.22;99751.81;5005774;28;20137;-84
2022/05/23 11:04:43;;;;;;;7.72;2.35;;;;;;;24.27;50.95;99740.81;4991800;28;20091;-86
2022/05/23 11:07:28;;;;;;;9.73;2.92;;;;;;;24.72;51.02;99735.56;5008042;28;20127;-84
2022/05/23 11:10:29;;;;;;;5.50;2.35;;;;;;;24.90;49.24;99734.09;4987342;28;20045;-85
2022/05/23 11:13:34;;;;;;;5.80;2.53;;;;;;;25.09;49.39;99723.59;4995090;28;20022;-85
2022/05/23 11:16:03;;;;;;;9.20;2.33;;;;;;;25.13;48.98;99727.25;5008716;28;20076;-83
2022/05/23 11:18:48;;;;;;;6.53;2.42;;;;;;;25.29;48.96;99722.66;4978833;28;20045;-84
2022/05/23 11:21:26;;;;;;;5.10;2.72;;;;;;;25.38;48.21;99713.81;4997016;28;20509;-86
2022/05/23 11:24:07;;;;;;;7.78;2.97;;;;;;;25.54;49.16;99714.44;5014004;28;20065;-83
2022/05/23 11:26:39;;;;;;;8.02;2.33;;;;;;;25.47;48.68;99708.69;4991994;28;20057;-85
2022/05/23 11:34:50;;;;;;;7.60;2.20;;;;;;;25.83;48.46;99684.41;4997100;28;20053;-86
2022/05/23 11:39:52;;;;;;;6.63;2.33;;;;;;;26.02;47.82;99665.84;5011218;28;20074;-83
2022/05/23 11:42:38;;;;;;;7.05;1.85;;;;;;;26.29;47.66;99661.75;5012914;28;20045;-86
2022/05/23 11:47:58;;;;;;;7.10;2.38;;;;;;;26.07;47.65;99670.28;4996963;28;20064;-87
2022/05/23 11:50:30;;;;;;;6.15;2.85;;;;;;;26.43;45.97;99670.59;5010795;28;20046;-89
2022/05/23 11:53:26;;;;;;;6.57;2.23;;;;;;;26.47;45.95;99662.84;4984119;28;20034;-85
2022/05/23 11:55:52;;;;;;;4.10;1.80;;;;;;;26.80;47.02;99655.69;4981940;28;20041;-83
2022/05/23 11:58:36;;;;;;;4.40;1.58;;;;;;;27.16;46.66;99647.88;4981617;28;20022;-84
2022/05/23 12:01:11;;;;;;;7.18;3.38;;;;;;;27.11;44.79;99649.84;5011669;28;20033;-84
2022/05/23 12:03:52;;;;;;;4.97;2.08;;;;;;;26.95;45.51;99639.44;5016833;28;20038;-84
2022/05/23 12:06:28;;;;;;;6.82;1.90;;;;;;;26.61;46.90;99640.56;4979524;28;20044;-83
2022/05/23 12:08:57;;;;;;;6.28;2.05;;;;;;;26.47;46.56;99634.41;4985713;28;20034;-89
2022/05/23 12:11:27;;;;;;;6.13;2.25;;;;;;;26.20;46.59;99630.56;4982691;28;20037;-86
2022/05/23 12:13:58;;;;;;;8.05;2.33;;;;;;;26.10;46.89;99633.34;4994623;28;20030;-86
2022/05/23 12:16:29;;;;;;;4.95;2.20;;;;;;;26.10;47.68;99625.38;4992660;28;20037;-83
2022/05/23 12:19:28;;;;;;;5.70;1.98;;;;;;;25.97;48.02;99620.78;4973935;28;20059;-84
2022/05/23 12:22:13;;;;;;;5.18;2.63;;;;;;;25.57;48.40;99622.88;4977992;28;20042;-84
2022/05/23 12:24:55;;;;;;;10.35;3.05;;;;;;;25.61;49.08;99621.22;4976014;28;20038;-85
2022/05/23 12:27:50;;;;;;;10.00;2.28;;;;;;;25.66;48.86;99621.16;4980099;28;20071;-88
2022/05/23 12:30:23;;;;;;;4.57;1.80;;;;;;;25.57;49.35;99626.31;4970580;28;20521;-84
2022/05/23 12:32:58;;;;;;;;;;;;;;;25.67;49.52;99617.41;4992464;28;20045;-83
2022/05/23 12:35:30;;;;;;;5.90;2.00;;;;;;;25.72;49.31;99612.06;5011045;28;19921;-88
2022/05/23 12:38:41;;;;;;;5.88;2.20;;;;;;;25.49;50.00;99615.53;5003527;28;20423;-88
2022/05/23 12:41:48;;;;;;;7.15;2.08;;;;;;;25.45;50.48;99610.00;4984938;28;20109;-84
2022/05/23 12:44:34;;;;;;;7.80;2.33;;;;;;;25.59;51.66;99618.84;4977828;28;20449;-84
2022/05/23 12:47:16;;;;;;;11.02;2.30;;;;;;;25.36;50.71;99611.72;5000092;28;20033;-83
2022/05/23 12:50:05;;;;;;;7.35;2.55;;;;;;;25.13;51.66;99595.47;4972580;28;20038;-85
2022/05/23 12:53:06;;;;;;;6.60;3.00;;;;;;;25.05;51.79;99604.03;5004612;28;20482;-83
2022/05/23 12:55:31;;;;;;;7.13;2.10;;;;;;;24.57;53.37;99599.44;4999636;28;20030;-83
2022/05/23 12:58:06;;;;;;;12.57;2.95;;;;;;;24.53;55.06;99595.00;4993227;28;20536;-85
2022/05/23 13:00:55;;;;;;;5.90;2.45;;;;;;;24.60;54.67;99590.97;4977957;28;20030;-84
2022/05/23 13:03:32;;;;;;;6.30;2.15;;;;;;;24.53;55.26;99587.84;4988040;28;20030;-86